createdAt,value
2017-05-26T00:01:31.467Z,15.10
2017-05-26T00:03:59.802Z,15.10
2017-05-26T00:06:28.152Z,15.10
2017-05-26T00:08:56.649Z,15.20
2017-05-26T00:17:11.573Z,15.20
2017-05-26T00:19:39.917Z,15.10
2017-05-26T00:22:08.253Z,15.10
2017-05-26T00:24:36.910Z,15.10
2017-05-26T00:27:05.308Z,15.20
2017-05-26T00:29:33.647Z,15.20
2017-05-26T00:32:02.004Z,15.20
2017-05-26T00:34:30.352Z,15.30
2017-05-26T00:36:58.684Z,15.30
2017-05-26T00:39:26.316Z,15.20
2017-05-26T00:41:54.663Z,15.20
2017-05-26T00:44:22.994Z,15.10
2017-05-26T00:46:51.375Z,15.20
2017-05-26T00:49:19.712Z,15.20
2017-05-26T00:51:48.053Z,15.00
2017-05-26T00:54:16.509Z,15.00
2017-05-26T00:56:44.855Z,15.00
2017-05-26T00:59:13.194Z,15.00
2017-05-26T01:01:41.575Z,14.90
2017-05-26T01:04:09.923Z,14.80
2017-05-26T01:06:38.257Z,14.80
2017-05-26T01:09:07.110Z,14.80
2017-05-26T01:11:35.443Z,14.70
2017-05-26T01:14:03.781Z,14.70
2017-05-26T01:16:32.285Z,14.70
2017-05-26T01:19:00.632Z,14.70
2017-05-26T01:21:28.960Z,14.70
2017-05-26T01:23:57.358Z,14.70
2017-05-26T01:26:25.770Z,14.70
2017-05-26T01:28:54.112Z,14.80
2017-05-26T01:31:22.663Z,14.80
2017-05-26T01:33:51.324Z,14.70
2017-05-26T01:36:19.687Z,14.70
2017-05-26T01:38:48.072Z,14.80
2017-05-26T01:41:16.400Z,14.70
2017-05-26T01:43:44.732Z,14.70
2017-05-26T01:46:13.119Z,14.70
2017-05-26T01:48:41.460Z,14.70
2017-05-26T01:51:09.809Z,14.70
2017-05-26T01:53:37.574Z,14.70
2017-05-26T01:56:05.908Z,14.70
2017-05-26T01:58:34.251Z,14.70
2017-05-26T02:01:02.735Z,14.70
2017-05-26T02:03:31.068Z,14.80
2017-05-26T02:05:59.400Z,14.80
2017-05-26T02:08:27.919Z,14.80
2017-05-26T02:10:56.252Z,14.80
2017-05-26T02:13:23.816Z,14.80
2017-05-26T02:15:52.339Z,14.80
2017-05-26T02:18:20.664Z,14.90
2017-05-26T02:20:49.004Z,14.90
2017-05-26T02:23:17.508Z,14.90
2017-05-26T02:25:45.851Z,14.80
2017-05-26T02:28:14.189Z,14.70
2017-05-26T02:30:42.656Z,14.70
2017-05-26T02:33:11.005Z,14.60
2017-05-26T02:35:39.344Z,14.60
2017-05-26T02:38:07.846Z,14.70
2017-05-26T02:40:36.191Z,14.70
2017-05-26T02:43:04.520Z,14.60
2017-05-26T02:45:32.987Z,14.60
2017-05-26T02:48:01.326Z,14.60
2017-05-26T02:50:29.720Z,14.70
2017-05-26T02:52:58.184Z,14.60
2017-05-26T02:55:26.528Z,14.70
2017-05-26T02:57:54.855Z,14.70
2017-05-26T03:00:23.364Z,14.60
2017-05-26T03:02:51.700Z,14.60
2017-05-26T03:05:20.047Z,14.50
2017-05-26T03:07:48.517Z,14.50
2017-05-26T03:10:16.857Z,14.60
2017-05-26T03:12:45.185Z,14.60
2017-05-26T03:15:13.643Z,14.70
2017-05-26T03:17:41.980Z,14.80
2017-05-26T03:20:10.309Z,14.80
2017-05-26T03:22:38.039Z,14.80
2017-05-26T03:25:06.387Z,14.70
2017-05-26T03:27:34.721Z,14.80
2017-05-26T03:30:02.466Z,14.80
2017-05-26T03:32:30.799Z,14.60
2017-05-26T03:34:59.131Z,14.60
2017-05-26T03:37:27.596Z,14.70
2017-05-26T03:39:55.981Z,14.70
2017-05-26T03:42:24.292Z,14.70
2017-05-26T03:44:52.842Z,14.70
2017-05-26T03:47:21.187Z,14.70
2017-05-26T03:49:49.550Z,14.80
2017-05-26T03:52:18.345Z,14.90
2017-05-26T03:54:46.675Z,15.00
2017-05-26T03:57:15.038Z,14.90
2017-05-26T03:59:43.416Z,15.00
2017-05-26T04:02:11.747Z,15.10
2017-05-26T04:04:40.093Z,15.00
2017-05-26T04:07:08.595Z,15.10
2017-05-26T04:09:36.928Z,15.20
2017-05-26T04:12:05.275Z,15.10
2017-05-26T04:14:33.779Z,15.10
2017-05-26T04:17:02.135Z,15.20
2017-05-26T04:19:30.503Z,15.20
2017-05-26T04:21:59.272Z,15.20
2017-05-26T04:24:27.606Z,15.20
2017-05-26T04:26:55.963Z,15.20
2017-05-26T04:29:24.430Z,15.20
2017-05-26T04:31:52.774Z,15.30
2017-05-26T04:34:21.112Z,15.30
2017-05-26T04:36:49.503Z,15.20
2017-05-26T04:39:17.841Z,15.20
2017-05-26T04:41:46.179Z,15.20
2017-05-26T04:44:14.746Z,15.30
2017-05-26T04:46:43.092Z,15.30
2017-05-26T04:49:11.444Z,15.40
2017-05-26T04:51:39.955Z,15.50
2017-05-26T04:54:08.304Z,15.60
2017-05-26T04:56:36.641Z,15.60
2017-05-26T04:59:05.463Z,15.60
2017-05-26T05:01:33.815Z,15.60
2017-05-26T05:04:02.155Z,15.70
2017-05-26T05:06:30.820Z,15.60
2017-05-26T05:08:59.157Z,15.70
2017-05-26T05:11:27.497Z,15.70
2017-05-26T05:13:55.905Z,15.70
2017-05-26T05:16:24.255Z,15.80
2017-05-26T05:18:52.608Z,15.80
2017-05-26T05:21:21.016Z,15.80
2017-05-26T05:23:49.389Z,15.80
2017-05-26T05:26:17.730Z,15.90
2017-05-26T05:28:46.204Z,16.00
2017-05-26T05:31:14.540Z,16.10
2017-05-26T05:33:42.877Z,16.00
2017-05-26T05:36:11.360Z,16.00
2017-05-26T05:38:39.696Z,16.10
2017-05-26T05:41:08.020Z,16.10
2017-05-26T05:43:36.379Z,16.10
2017-05-26T05:46:04.725Z,16.20
2017-05-26T05:48:33.056Z,16.20
2017-05-26T05:51:01.425Z,16.20
2017-05-26T05:53:29.758Z,16.20
2017-05-26T05:55:58.087Z,16.10
2017-05-26T05:58:26.553Z,16.10
2017-05-26T06:00:54.883Z,16.00
2017-05-26T06:03:23.234Z,16.00
2017-05-26T06:05:51.780Z,16.00
2017-05-26T06:08:20.121Z,15.90
2017-05-26T06:10:48.453Z,16.00
2017-05-26T06:13:16.812Z,16.00
2017-05-26T06:15:45.142Z,16.10
2017-05-26T06:18:13.472Z,16.20
2017-05-26T06:20:41.873Z,16.20
2017-05-26T06:23:10.207Z,16.00
2017-05-26T06:25:38.537Z,16.00
2017-05-26T06:28:07.045Z,16.10
2017-05-26T06:30:35.387Z,16.10
2017-05-26T06:33:03.727Z,16.30
2017-05-26T06:35:32.106Z,16.40
2017-05-26T06:38:00.431Z,16.40
2017-05-26T06:40:28.760Z,16.30
2017-05-26T06:42:57.212Z,16.30
2017-05-26T06:45:25.540Z,16.50
2017-05-26T06:47:53.890Z,16.70
2017-05-26T06:50:22.355Z,16.90
2017-05-26T06:52:50.688Z,16.90
2017-05-26T06:55:19.023Z,16.90
2017-05-26T06:57:47.392Z,16.90
2017-05-26T07:00:15.759Z,16.90
2017-05-26T07:02:44.102Z,16.80
2017-05-26T07:05:12.700Z,16.80
2017-05-26T07:07:41.041Z,16.70
2017-05-26T07:10:09.392Z,16.70
2017-05-26T07:12:38.198Z,16.70
2017-05-26T07:15:06.657Z,16.80
2017-05-26T07:17:34.984Z,16.90
2017-05-26T07:20:03.356Z,16.90
2017-05-26T07:22:31.689Z,16.90
2017-05-26T07:25:00.016Z,17.10
2017-05-26T07:27:28.539Z,17.10
2017-05-26T07:29:56.868Z,17.10
2017-05-26T07:32:25.191Z,17.10
2017-05-26T07:34:53.815Z,17.20
2017-05-26T07:37:22.161Z,17.30
2017-05-26T07:39:50.515Z,17.30
2017-05-26T07:42:18.965Z,17.30
2017-05-26T07:44:47.295Z,17.20
2017-05-26T07:47:15.619Z,17.00
2017-05-26T07:49:44.276Z,16.80
2017-05-26T07:52:12.623Z,16.80
2017-05-26T07:54:40.952Z,16.80
2017-05-26T07:57:09.463Z,16.90
2017-05-26T07:59:37.788Z,16.90
2017-05-26T08:02:06.140Z,17.10
2017-05-26T08:04:34.752Z,17.40
2017-05-26T08:07:03.087Z,17.50
2017-05-26T08:09:31.424Z,17.70
2017-05-26T08:11:59.979Z,17.70
2017-05-26T08:14:29.143Z,17.70
2017-05-26T08:16:57.468Z,17.60
2017-05-26T08:19:25.873Z,17.60
2017-05-26T08:21:54.210Z,17.50
2017-05-26T08:24:22.547Z,17.50
2017-05-26T08:26:51.189Z,17.40
2017-05-26T08:29:19.529Z,17.30
2017-05-26T08:31:47.888Z,17.30
2017-05-26T08:34:16.427Z,17.20
2017-05-26T08:36:44.779Z,17.20
2017-05-26T08:39:13.117Z,17.10
2017-05-26T08:41:41.653Z,17.10
2017-05-26T08:44:10.010Z,17.30
2017-05-26T08:49:13.341Z,17.40
2017-05-26T08:51:41.674Z,17.50
2017-05-26T08:54:10.005Z,17.50
2017-05-26T08:56:38.368Z,17.60
2017-05-26T08:59:06.725Z,17.70
2017-05-26T09:01:35.059Z,17.80
2017-05-26T09:04:03.608Z,17.90
2017-05-26T09:06:31.943Z,18.00
2017-05-26T09:09:00.291Z,18.10
2017-05-26T09:11:28.716Z,18.20
2017-05-26T09:13:57.057Z,18.20
2017-05-26T09:16:25.395Z,18.30
2017-05-26T09:18:54.000Z,18.30
2017-05-26T09:21:22.329Z,18.40
2017-05-26T09:23:50.659Z,18.40
2017-05-26T09:26:19.025Z,18.40
2017-05-26T09:28:47.370Z,18.50
2017-05-26T09:31:15.725Z,18.60
2017-05-26T09:33:44.365Z,18.70
2017-05-26T09:36:12.702Z,18.80
2017-05-26T09:38:41.039Z,18.80
2017-05-26T09:41:09.461Z,18.90
2017-05-26T09:43:37.798Z,19.00
2017-05-26T09:46:06.131Z,19.10
2017-05-26T09:48:34.527Z,19.10
2017-05-26T09:51:02.102Z,19.10
2017-05-26T09:53:30.604Z,19.30
2017-05-26T09:55:58.439Z,19.30
2017-05-26T09:58:26.780Z,19.10
2017-05-26T10:00:55.112Z,19.10
2017-05-26T10:03:23.508Z,19.10
2017-05-26T10:05:51.851Z,19.30
2017-05-26T10:08:20.202Z,19.20
2017-05-26T10:10:48.911Z,19.30
2017-05-26T10:13:17.239Z,19.40
2017-05-26T10:15:45.584Z,19.50
2017-05-26T10:18:14.140Z,19.60
2017-05-26T10:20:42.487Z,19.60
2017-05-26T10:23:10.824Z,19.80
2017-05-26T10:25:39.380Z,19.90
2017-05-26T10:28:07.730Z,19.90
2017-05-26T10:30:36.067Z,19.90
2017-05-26T10:33:04.724Z,20.00
2017-05-26T10:35:33.059Z,20.10
2017-05-26T10:38:01.412Z,20.10
2017-05-26T10:40:29.796Z,20.20
2017-05-26T10:42:58.144Z,20.20
2017-05-26T10:45:26.485Z,20.30
2017-05-26T10:47:55.101Z,20.30
2017-05-26T10:50:23.444Z,20.20
2017-05-26T10:52:51.777Z,20.20
2017-05-26T10:55:20.260Z,20.20
2017-05-26T10:57:48.585Z,20.30
2017-05-26T11:00:16.923Z,20.40
2017-05-26T11:02:45.470Z,20.40
2017-05-26T11:05:13.813Z,20.50
2017-05-26T11:07:42.153Z,20.60
2017-05-26T11:10:10.618Z,20.60
2017-05-26T11:12:38.957Z,20.60
2017-05-26T11:15:07.305Z,20.70
2017-05-26T11:17:35.735Z,20.80
2017-05-26T11:20:04.087Z,21.00
2017-05-26T11:22:32.421Z,21.00
2017-05-26T11:25:00.885Z,20.90
2017-05-26T11:27:29.219Z,21.00
2017-05-26T11:29:57.552Z,21.10
2017-05-26T11:32:26.317Z,21.20
2017-05-26T11:34:54.652Z,21.10
2017-05-26T11:37:23.004Z,21.20
2017-05-26T11:39:51.507Z,21.20
2017-05-26T11:42:19.837Z,21.30
2017-05-26T11:44:48.170Z,21.40
2017-05-26T11:47:16.891Z,21.40
2017-05-26T11:49:45.226Z,21.50
2017-05-26T11:52:12.793Z,21.50
2017-05-26T11:54:41.247Z,21.50
2017-05-26T11:57:09.588Z,21.60
2017-05-26T11:59:37.952Z,21.60
2017-05-26T12:02:06.653Z,21.70
2017-05-26T12:04:34.983Z,21.80
2017-05-26T12:07:03.313Z,21.90
2017-05-26T12:09:31.901Z,21.90
2017-05-26T12:12:00.336Z,22.00
2017-05-26T12:14:29.128Z,22.00
2017-05-26T12:16:57.752Z,22.10
2017-05-26T12:19:26.088Z,22.10
2017-05-26T12:21:54.421Z,22.30
2017-05-26T12:24:22.821Z,22.30
2017-05-26T12:26:51.155Z,22.30
2017-05-26T12:29:19.491Z,22.40
2017-05-26T12:31:48.117Z,22.40
2017-05-26T12:34:16.464Z,22.50
2017-05-26T12:36:44.793Z,22.50
2017-05-26T12:39:13.164Z,22.50
2017-05-26T12:41:41.495Z,22.50
2017-05-26T12:44:09.894Z,22.50
2017-05-26T12:46:38.348Z,22.60
2017-05-26T12:49:06.672Z,22.60
2017-05-26T12:51:34.994Z,22.60
2017-05-26T12:54:03.351Z,22.60
2017-05-26T12:56:31.680Z,22.70
2017-05-26T12:59:00.015Z,22.90
2017-05-26T13:01:28.554Z,22.90
2017-05-26T13:03:56.881Z,22.90
2017-05-26T13:06:25.208Z,22.90
2017-05-26T13:08:53.785Z,23.00
2017-05-26T13:11:22.152Z,23.00
2017-05-26T13:13:50.477Z,23.10
2017-05-26T13:16:18.928Z,23.20
2017-05-26T13:18:47.266Z,23.30
2017-05-26T13:21:15.609Z,23.20
2017-05-26T13:23:44.085Z,23.20
2017-05-26T13:26:12.425Z,23.30
2017-05-26T13:28:40.749Z,23.30
2017-05-26T13:31:09.219Z,23.40
2017-05-26T13:33:37.545Z,23.40
2017-05-26T13:36:05.880Z,23.50
2017-05-26T13:38:34.427Z,23.40
2017-05-26T13:41:02.780Z,23.50
2017-05-26T13:43:31.107Z,23.60
2017-05-26T13:45:59.671Z,23.70
2017-05-26T13:48:27.998Z,23.80
2017-05-26T13:50:56.319Z,23.90
2017-05-26T13:53:25.014Z,23.90
2017-05-26T13:55:53.342Z,23.80
2017-05-26T13:58:21.671Z,23.90
2017-05-26T14:00:50.042Z,24.00
2017-05-26T14:03:18.360Z,24.00
2017-05-26T14:05:46.691Z,23.90
2017-05-26T14:08:15.154Z,23.90
2017-05-26T14:10:43.496Z,23.80
2017-05-26T14:13:11.819Z,23.70
2017-05-26T14:15:40.173Z,23.90
2017-05-26T14:18:08.560Z,24.00
2017-05-26T14:20:36.909Z,23.90
2017-05-26T14:23:05.359Z,23.90
2017-05-26T14:25:33.683Z,24.00
2017-05-26T14:28:02.029Z,24.10
2017-05-26T14:30:30.588Z,24.10
2017-05-26T14:32:58.911Z,24.10
2017-05-26T14:35:27.240Z,24.00
2017-05-26T14:37:55.928Z,24.00
2017-05-26T14:40:24.257Z,24.10
2017-05-26T14:42:52.576Z,24.00
2017-05-26T14:45:20.955Z,24.00
2017-05-26T14:47:49.280Z,24.00
2017-05-26T14:50:17.607Z,24.20
2017-05-26T14:52:45.992Z,24.20
2017-05-26T14:55:14.321Z,24.20
2017-05-26T14:57:42.640Z,24.00
2017-05-26T15:00:11.224Z,24.00
2017-05-26T15:02:39.556Z,24.00
2017-05-26T15:05:07.879Z,23.90
2017-05-26T15:07:36.363Z,23.90
2017-05-26T15:10:04.707Z,24.00
2017-05-26T15:12:33.047Z,24.00
2017-05-26T15:15:01.404Z,24.10
2017-05-26T15:17:29.736Z,24.10
2017-05-26T15:19:58.060Z,24.30
2017-05-26T15:22:26.423Z,24.30
2017-05-26T15:24:54.756Z,24.20
2017-05-26T15:27:23.099Z,24.30
2017-05-26T15:29:51.659Z,24.20
2017-05-26T15:32:19.985Z,24.30
2017-05-26T15:34:48.325Z,24.40
2017-05-26T15:37:16.933Z,24.40
2017-05-26T15:39:45.258Z,24.30
2017-05-26T15:42:13.589Z,24.30
2017-05-26T15:44:41.945Z,24.30
2017-05-26T15:47:10.265Z,24.20
2017-05-26T15:49:38.600Z,24.20
2017-05-26T15:52:07.176Z,24.30
2017-05-26T15:54:35.499Z,24.20
2017-05-26T15:57:03.824Z,24.20
2017-05-26T15:59:32.512Z,24.30
2017-05-26T16:02:00.844Z,24.40
2017-05-26T16:04:29.167Z,24.40
2017-05-26T16:06:57.536Z,24.30
2017-05-26T16:09:25.872Z,24.40
2017-05-26T16:11:54.192Z,24.30
2017-05-26T16:14:22.558Z,24.30
2017-05-26T16:16:50.880Z,24.30
2017-05-26T16:19:19.212Z,24.30
2017-05-26T16:21:47.595Z,24.30
2017-05-26T16:24:15.920Z,24.20
2017-05-26T16:26:44.246Z,24.20
2017-05-26T16:29:12.605Z,24.30
2017-05-26T16:31:40.932Z,24.20
2017-05-26T16:34:09.258Z,24.10
2017-05-26T16:36:37.822Z,24.10
2017-05-26T16:39:06.155Z,24.20
2017-05-26T16:41:34.476Z,24.20
2017-05-26T16:44:03.116Z,24.00
2017-05-26T16:46:31.451Z,24.00
2017-05-26T16:48:59.777Z,24.00
2017-05-26T16:51:28.456Z,24.00
2017-05-26T16:53:56.779Z,23.90
2017-05-26T16:56:25.103Z,23.80
2017-05-26T16:58:53.803Z,23.90
2017-05-26T17:01:21.365Z,23.90
2017-05-26T17:03:48.936Z,23.90
2017-05-26T17:06:16.540Z,24.00
2017-05-26T17:08:44.863Z,23.90
2017-05-26T17:11:13.199Z,23.90
2017-05-26T17:13:41.548Z,23.80
2017-05-26T17:16:09.900Z,23.70
2017-05-26T17:18:38.228Z,23.70
2017-05-26T17:21:06.735Z,23.70
2017-05-26T17:23:35.126Z,23.70
2017-05-26T17:26:03.440Z,23.60
2017-05-26T17:28:31.908Z,23.60
2017-05-26T17:31:00.236Z,23.60
2017-05-26T17:33:28.560Z,23.50
2017-05-26T17:35:57.009Z,23.50
2017-05-26T17:38:25.338Z,23.60
2017-05-26T17:40:53.663Z,23.40
2017-05-26T17:43:22.023Z,23.40
2017-05-26T17:45:50.384Z,23.40
2017-05-26T17:48:18.728Z,23.30
2017-05-26T17:50:47.115Z,23.30
2017-05-26T17:53:15.463Z,23.20
2017-05-26T17:55:44.748Z,23.10
2017-05-26T17:58:13.327Z,23.10
2017-05-26T18:00:41.651Z,23.00
2017-05-26T18:03:09.984Z,23.00
2017-05-26T18:05:38.570Z,22.90
2017-05-26T18:08:06.906Z,22.90
2017-05-26T18:10:35.221Z,22.90
2017-05-26T18:13:03.575Z,22.90
2017-05-26T18:15:31.908Z,22.60
2017-05-26T18:18:00.231Z,22.60
2017-05-26T18:20:28.840Z,22.50
2017-05-26T18:22:57.177Z,22.40
2017-05-26T18:25:25.511Z,22.40
2017-05-26T18:27:54.086Z,22.40
2017-05-26T18:30:22.425Z,22.40
2017-05-26T18:32:50.755Z,22.30
2017-05-26T18:35:19.272Z,22.20
2017-05-26T18:37:47.621Z,22.10
2017-05-26T18:40:15.970Z,22.20
2017-05-26T18:42:44.348Z,22.10
2017-05-26T18:45:12.688Z,22.00
2017-05-26T18:47:41.031Z,22.00
2017-05-26T18:50:09.410Z,21.90
2017-05-26T18:52:37.756Z,21.90
2017-05-26T18:55:06.104Z,21.70
2017-05-26T18:57:34.475Z,21.60
2017-05-26T19:00:02.809Z,21.60
2017-05-26T19:02:31.139Z,21.60
2017-05-26T19:04:59.493Z,21.60
2017-05-26T19:07:27.819Z,21.50
2017-05-26T19:09:56.320Z,21.40
2017-05-26T19:12:24.712Z,21.30
2017-05-26T19:14:53.037Z,21.30
2017-05-26T19:17:21.366Z,21.20
2017-05-26T19:19:49.970Z,21.10
2017-05-26T19:22:18.319Z,20.90
2017-05-26T19:24:46.648Z,21.00
2017-05-26T19:27:15.270Z,20.90
2017-05-26T19:29:42.832Z,20.90
2017-05-26T19:32:11.165Z,20.80
2017-05-26T19:34:39.885Z,20.60
2017-05-26T19:37:08.221Z,20.60
2017-05-26T19:39:36.547Z,20.50
2017-05-26T19:42:04.914Z,20.40
2017-05-26T19:44:33.280Z,20.30
2017-05-26T19:47:01.616Z,20.30
2017-05-26T19:49:29.980Z,20.10
2017-05-26T19:51:58.315Z,20.00
2017-05-26T19:54:27.322Z,20.00
2017-05-26T19:56:55.776Z,19.90
2017-05-26T19:59:23.353Z,19.80
2017-05-26T20:01:50.933Z,19.70
2017-05-26T20:04:19.310Z,19.60
2017-05-26T20:06:47.650Z,19.60
2017-05-26T20:09:15.984Z,19.50
2017-05-26T20:11:44.484Z,19.40
2017-05-26T20:14:12.828Z,19.40
2017-05-26T20:16:41.165Z,19.30
2017-05-26T20:19:09.715Z,19.30
2017-05-26T20:21:38.055Z,19.20
2017-05-26T20:24:06.387Z,19.10
2017-05-26T20:26:34.758Z,19.10
2017-05-26T20:29:03.087Z,19.00
2017-05-26T20:31:30.657Z,19.00
2017-05-26T20:33:59.338Z,18.90
2017-05-26T20:36:27.701Z,18.80
2017-05-26T20:38:56.039Z,18.80
2017-05-26T20:41:24.403Z,18.70
2017-05-26T20:43:52.748Z,18.70
2017-05-26T20:46:21.085Z,18.70
2017-05-26T20:48:49.543Z,18.60
2017-05-26T20:51:18.021Z,18.50
2017-05-26T20:53:46.416Z,18.40
2017-05-26T20:56:15.032Z,18.40
2017-05-26T20:58:43.363Z,18.30
2017-05-26T21:01:11.689Z,18.30
2017-05-26T21:03:40.347Z,18.20
2017-05-26T21:06:08.774Z,18.10
2017-05-26T21:08:37.104Z,18.00
2017-05-26T21:11:05.471Z,18.00
2017-05-26T21:13:33.797Z,18.00
2017-05-26T21:16:02.535Z,17.90
2017-05-26T21:18:31.902Z,17.90
2017-05-26T21:21:01.245Z,17.90
2017-05-26T21:23:29.707Z,17.70
2017-05-26T21:25:58.056Z,17.80
2017-05-26T21:28:26.384Z,17.70
2017-05-26T21:30:54.712Z,17.70
2017-05-26T21:33:23.144Z,17.60
2017-05-26T21:35:51.477Z,17.60
2017-05-26T21:38:19.811Z,17.50
2017-05-26T21:40:48.325Z,17.40
2017-05-26T21:43:16.659Z,17.40
2017-05-26T21:45:45.008Z,17.40
2017-05-26T21:48:13.629Z,17.30
2017-05-26T21:50:41.184Z,17.30
2017-05-26T21:53:09.534Z,17.20
2017-05-26T21:55:38.040Z,17.20
2017-05-26T21:58:06.364Z,17.10
2017-05-26T22:00:34.708Z,17.00
2017-05-26T22:03:03.221Z,17.00
2017-05-26T22:05:31.561Z,17.00
2017-05-26T22:07:59.964Z,17.00
2017-05-26T22:10:28.355Z,16.90
2017-05-26T22:12:56.690Z,16.90
2017-05-26T22:15:25.019Z,16.80
2017-05-26T22:17:53.520Z,16.80
2017-05-26T22:20:21.872Z,16.70
2017-05-26T22:22:50.198Z,16.60
2017-05-26T22:25:18.717Z,16.70
2017-05-26T22:27:47.052Z,16.60
2017-05-26T22:30:15.409Z,16.50
2017-05-26T22:32:43.776Z,16.40
2017-05-26T22:35:12.112Z,16.40
2017-05-26T22:37:40.458Z,16.40
2017-05-26T22:40:08.861Z,16.40
2017-05-26T22:42:38.136Z,16.40
2017-05-26T22:45:06.485Z,16.30
2017-05-26T22:47:34.937Z,16.30
2017-05-26T22:50:03.287Z,16.20
2017-05-26T22:52:31.621Z,16.20
2017-05-26T22:55:00.106Z,16.10
2017-05-26T22:57:28.457Z,16.10
2017-05-26T22:59:56.798Z,16.10
2017-05-26T23:02:25.243Z,16.10
2017-05-26T23:04:53.567Z,16.10
2017-05-26T23:07:21.897Z,16.10
2017-05-26T23:09:50.268Z,16.00
2017-05-26T23:12:18.604Z,16.00
2017-05-26T23:14:46.940Z,15.90
2017-05-26T23:17:15.675Z,15.90
2017-05-26T23:19:44.015Z,15.90
2017-05-26T23:22:12.348Z,15.80
2017-05-26T23:24:40.808Z,15.80
2017-05-26T23:27:09.136Z,15.70
2017-05-26T23:29:36.724Z,15.70
2017-05-26T23:32:05.187Z,15.70
2017-05-26T23:34:33.524Z,15.60
2017-05-26T23:37:01.869Z,15.60
2017-05-26T23:39:30.458Z,15.50
2017-05-26T23:41:58.799Z,15.50
2017-05-26T23:44:27.128Z,15.50
2017-05-26T23:46:55.992Z,15.50
2017-05-26T23:49:23.557Z,15.50
2017-05-26T23:51:51.908Z,15.30
2017-05-26T23:54:20.287Z,15.30
2017-05-26T23:56:48.631Z,15.20
2017-05-26T23:59:16.211Z,15.20
